Maassluis, Netherlands
Current Conditions -  °F | °C
As of 8:25 PM on Friday 28 Nov 2014 (Local Time) from EHRD Reporting Station
Clear Clear  
Wind Chill: 38°   Ceiling: Unl
Heat Index: 45°   Visibility: 5mi
Dew Point: 39°   Wind: 14mph
Humidity: 81%   Direction: 90°E
Pressure: 29.8"   Gusts: NA
Location:  51.92°N, 4.25°E
Report Text: EHRD 281925Z AUTO 09012KT 050V130 8000 NSC 07/04 Q1009 NOSIG
Loading
Personal Weather Stations






























Interactive Weather Map New forecast layout! Learn more

10-Day Weather Forecast

Advertisements
Track Severe Weather on mobile